Offenbach, Germany

10:20 AM CEST on July 29, 2016 (GMT +0200)
Wiesbaden Army Air Field | | Change Station

Elev 459 ft 50.05 °N, 8.33 °E | Updated 22 minutes ago

Overcast
Overcast
64 °F
Feels Like 64 °F
N
6
Wind Variable Wind from West

Today
High -- | Low -- °F
--% Chance of Precip.
Yesterday
High -- | Low -- °F
Precip. -- in
Pressure 29.99 in
Visibility 6.2 miles
Clouds Few 1100 ft
Scattered Clouds 2200 ft
Scattered Clouds 4800 ft
Overcast 8000 ft
Dew Point 57 °F
Humidity 79%
Rainfall 0.04 in
Snow Depth Not available.
5:50 AM 9:11 PM
Waning Crescent, 24% visible
METAR ETOU 290758Z AUTO 28005KT 9999 FEW011 SCT022 SCT048 OVC080 18/14 A2999 RMK AO2 RAE32DZB32E48 SLP155 P0004 T01770140 $
Pressure 29.99 in
Visibility 6.2 miles
Clouds Few 1100 ft
Scattered Clouds 2200 ft
Scattered Clouds 4800 ft
Overcast 8000 ft
Dew Point 57 °F
Humidity 79%
Rainfall 0.04 in
Snow Depth Not available.
5:50 AM 9:11 PM
Waning Crescent, 24% visible
METAR ETOU 290758Z AUTO 28005KT 9999 FEW011 SCT022 SCT048 OVC080 18/14 A2999 RMK AO2 RAE32DZB32E48 SLP155 P0004 T01770140 $

10-Day Weather Forecast

×

Almanac

Astronomy

Jul. 29, 2016 Rise Set
Actual Time
Civil Twilight
Nautical Twilight
Astronomical Twilight
Moon
Length of Visible Light
Length of Day
Tomorrow will be .
, % of the Moon is Illuminated

Today's Extremes

Country Highs Country Lows

Community

WunderPhotos

Upload Photos

1,928,300 photos uploaded!

WunderBlog® & News

Nearby

Air Quality

  Air Quality AQ Index Pollutant
Not available.

Snow Depth

Station Depth Elevation

Earthquake Activity

City Distance Mag. Time & Date
Minimum magnitude displayed is 2.5.

Coastal Water Temperatures

Place Temperature

Stations

Nearby Weather Stations

Station Location Temp. Windchill Dew Point Humidity Wind Precip. Elev Updated Type